Terminal Aerodrome Forecast
Issued by NWS

Home | Current Version | Previous Version | Text Only | Print | Product List | Glossary On
Versions: 1 2 3 4 5 6 7 8 9 10 11 12 13 14 15 16 17 18 19 20 21
000
FTUS41 KBTV 162300
TAFPBG
TAF
KPBG 162328Z 1700/1724 VRB02KT P6SM SKC
     FM171400 12009KT P6SM SCT200
     FM171800 12012G20KT P6SM SCT200=

USA.gov is the U.S. government's official web portal to all federal, state and local government web resources and services.